sensor_id;sensor_type;location;lat;lon;timestamp;temperature;humidity
40756;DHT22;26461;45.630;9.418;2022-09-13T00:02:21;23.00;93.70
40756;DHT22;26461;45.630;9.418;2022-09-13T00:05:31;23.00;93.70
40756;DHT22;26461;45.630;9.418;2022-09-13T00:08:42;23.00;93.80
40756;DHT22;26461;45.630;9.418;2022-09-13T00:11:52;23.00;93.90
40756;DHT22;26461;45.630;9.418;2022-09-13T00:15:03;23.00;93.90
40756;DHT22;26461;45.630;9.418;2022-09-13T00:18:14;23.00;93.90
40756;DHT22;26461;45.630;9.418;2022-09-13T00:21:24;23.00;93.90
40756;DHT22;26461;45.630;9.418;2022-09-13T00:24:34;23.10;94.00
40756;DHT22;26461;45.630;9.418;2022-09-13T00:27:45;23.10;94.00
40756;DHT22;26461;45.630;9.418;2022-09-13T00:30:59;23.10;94.00
40756;DHT22;26461;45.630;9.418;2022-09-13T00:34:09;23.10;94.00
40756;DHT22;26461;45.630;9.418;2022-09-13T00:37:19;23.10;94.10
40756;DHT22;26461;45.630;9.418;2022-09-13T00:40:24;23.10;94.20
40756;DHT22;26461;45.630;9.418;2022-09-13T00:46:58;23.10;94.20
40756;DHT22;26461;45.630;9.418;2022-09-13T00:53:31;23.00;94.30
40756;DHT22;26461;45.630;9.418;2022-09-13T00:56:41;23.10;94.40
40756;DHT22;26461;45.630;9.418;2022-09-13T01:00:13;23.10;94.40
40756;DHT22;26461;45.630;9.418;2022-09-13T01:03:27;23.10;94.30
40756;DHT22;26461;45.630;9.418;2022-09-13T01:06:38;23.20;94.30
40756;DHT22;26461;45.630;9.418;2022-09-13T01:09:51;23.20;94.20
40756;DHT22;26461;45.630;9.418;2022-09-13T01:13:07;23.20;94.20
40756;DHT22;26461;45.630;9.418;2022-09-13T01:16:23;23.10;94.20
40756;DHT22;26461;45.630;9.418;2022-09-13T01:19:34;23.10;94.30
40756;DHT22;26461;45.630;9.418;2022-09-13T01:40:31;23.00;94.30
40756;DHT22;26461;45.630;9.418;2022-09-13T01:51:03;22.90;94.50
40756;DHT22;26461;45.630;9.418;2022-09-13T01:54:17;22.80;94.50
40756;DHT22;26461;45.630;9.418;2022-09-13T01:57:33;22.80;94.70
40756;DHT22;26461;45.630;9.418;2022-09-13T02:01:15;22.80;94.80
40756;DHT22;26461;45.630;9.418;2022-09-13T02:04:34;22.70;94.80
40756;DHT22;26461;45.630;9.418;2022-09-13T02:07:54;22.80;94.90
40756;DHT22;26461;45.630;9.418;2022-09-13T02:11:10;22.80;94.90
40756;DHT22;26461;45.630;9.418;2022-09-13T02:14:33;22.80;95.00
40756;DHT22;26461;45.630;9.418;2022-09-13T02:17:55;22.90;95.10
40756;DHT22;26461;45.630;9.418;2022-09-13T02:21:23;22.80;95.20
40756;DHT22;26461;45.630;9.418;2022-09-13T02:24:39;22.80;95.30
40756;DHT22;26461;45.630;9.418;2022-09-13T02:27:53;22.70;95.40
40756;DHT22;26461;45.630;9.418;2022-09-13T02:31:08;22.70;95.80
40756;DHT22;26461;45.630;9.418;2022-09-13T02:34:22;22.60;95.60
40756;DHT22;26461;45.630;9.418;2022-09-13T02:37:35;22.60;95.70
40756;DHT22;26461;45.630;9.418;2022-09-13T02:40:51;22.60;95.80
40756;DHT22;26461;45.630;9.418;2022-09-13T02:44:12;22.50;95.80
40756;DHT22;26461;45.630;9.418;2022-09-13T02:47:56;22.50;95.90
40756;DHT22;26461;45.630;9.418;2022-09-13T02:58:31;22.40;96.00
40756;DHT22;26461;45.630;9.418;2022-09-13T03:02:05;22.40;96.20
40756;DHT22;26461;45.630;9.418;2022-09-13T03:05:18;22.50;96.10
40756;DHT22;26461;45.630;9.418;2022-09-13T03:08:28;22.50;96.00
40756;DHT22;26461;45.630;9.418;2022-09-13T03:11:59;22.50;96.00
40756;DHT22;26461;45.630;9.418;2022-09-13T03:22:45;22.60;96.00
40756;DHT22;26461;45.630;9.418;2022-09-13T03:33:10;22.60;96.10
40756;DHT22;26461;45.630;9.418;2022-09-13T03:36:41;22.60;96.20
40756;DHT22;26461;45.630;9.418;2022-09-13T03:40:10;22.60;96.10
40756;DHT22;26461;45.630;9.418;2022-09-13T03:43:26;22.70;96.00
40756;DHT22;26461;45.630;9.418;2022-09-13T03:46:50;22.70;96.40
40756;DHT22;26461;45.630;9.418;2022-09-13T03:50:04;22.70;96.10
40756;DHT22;26461;45.630;9.418;2022-09-13T03:53:26;22.80;96.10
40756;DHT22;26461;45.630;9.418;2022-09-13T03:56:38;22.80;96.00
40756;DHT22;26461;45.630;9.418;2022-09-13T03:59:53;22.80;96.00
40756;DHT22;26461;45.630;9.418;2022-09-13T04:03:04;22.80;95.90
40756;DHT22;26461;45.630;9.418;2022-09-13T04:06:14;22.90;96.00
40756;DHT22;26461;45.630;9.418;2022-09-13T04:09:23;22.80;95.80
40756;DHT22;26461;45.630;9.418;2022-09-13T04:12:33;22.80;95.80
40756;DHT22;26461;45.630;9.418;2022-09-13T04:15:44;22.80;95.80
40756;DHT22;26461;45.630;9.418;2022-09-13T04:18:53;22.70;95.90
40756;DHT22;26461;45.630;9.418;2022-09-13T04:22:03;22.60;96.00
40756;DHT22;26461;45.630;9.418;2022-09-13T04:25:13;22.50;96.10
40756;DHT22;26461;45.630;9.418;2022-09-13T04:28:23;22.50;96.10
40756;DHT22;26461;45.630;9.418;2022-09-13T04:31:33;22.40;96.30
40756;DHT22;26461;45.630;9.418;2022-09-13T04:34:42;22.40;96.50
40756;DHT22;26461;45.630;9.418;2022-09-13T04:37:56;22.30;96.40
40756;DHT22;26461;45.630;9.418;2022-09-13T04:41:08;22.30;96.40
40756;DHT22;26461;45.630;9.418;2022-09-13T04:44:20;22.30;96.50
40756;DHT22;26461;45.630;9.418;2022-09-13T04:47:30;22.20;96.50
40756;DHT22;26461;45.630;9.418;2022-09-13T04:50:40;22.20;96.60
40756;DHT22;26461;45.630;9.418;2022-09-13T04:53:54;22.20;96.60
40756;DHT22;26461;45.630;9.418;2022-09-13T04:57:04;22.10;96.60
40756;DHT22;26461;45.630;9.418;2022-09-13T05:00:15;22.10;96.70
40756;DHT22;26461;45.630;9.418;2022-09-13T05:03:24;22.10;96.70
40756;DHT22;26461;45.630;9.418;2022-09-13T05:06:35;22.00;96.90
40756;DHT22;26461;45.630;9.418;2022-09-13T05:09:45;21.90;97.10
40756;DHT22;26461;45.630;9.418;2022-09-13T05:12:55;21.80;97.30
40756;DHT22;26461;45.630;9.418;2022-09-13T05:16:06;21.70;97.60
40756;DHT22;26461;45.630;9.418;2022-09-13T05:19:11;21.60;97.80
40756;DHT22;26461;45.630;9.418;2022-09-13T05:22:21;21.50;97.90
40756;DHT22;26461;45.630;9.418;2022-09-13T05:25:31;21.50;98.20
40756;DHT22;26461;45.630;9.418;2022-09-13T05:28:41;21.40;98.20
40756;DHT22;26461;45.630;9.418;2022-09-13T05:31:50;21.30;98.30
40756;DHT22;26461;45.630;9.418;2022-09-13T05:35:00;21.30;98.50
40756;DHT22;26461;45.630;9.418;2022-09-13T05:38:10;21.20;98.60
40756;DHT22;26461;45.630;9.418;2022-09-13T05:41:20;21.20;99.00
40756;DHT22;26461;45.630;9.418;2022-09-13T05:44:30;21.10;99.10
40756;DHT22;26461;45.630;9.418;2022-09-13T05:47:40;21.10;99.30
40756;DHT22;26461;45.630;9.418;2022-09-13T05:50:49;21.00;99.70
40756;DHT22;26461;45.630;9.418;2022-09-13T05:54:00;21.00;99.70
40756;DHT22;26461;45.630;9.418;2022-09-13T05:57:10;21.00;99.80
40756;DHT22;26461;45.630;9.418;2022-09-13T06:00:20;21.10;99.90
40756;DHT22;26461;45.630;9.418;2022-09-13T06:03:29;21.10;99.90
40756;DHT22;26461;45.630;9.418;2022-09-13T06:06:39;21.20;99.90
40756;DHT22;26461;45.630;9.418;2022-09-13T06:09:49;21.40;99.90
40756;DHT22;26461;45.630;9.418;2022-09-13T06:12:59;21.20;99.90
40756;DHT22;26461;45.630;9.418;2022-09-13T06:16:11;21.30;99.90
40756;DHT22;26461;45.630;9.418;2022-09-13T06:19:22;21.30;99.90
40756;DHT22;26461;45.630;9.418;2022-09-13T06:22:26;21.30;99.90
40756;DHT22;26461;45.630;9.418;2022-09-13T06:25:42;21.40;99.90
40756;DHT22;26461;45.630;9.418;2022-09-13T06:28:54;21.40;99.90
40756;DHT22;26461;45.630;9.418;2022-09-13T06:32:04;21.60;99.90
40756;DHT22;26461;45.630;9.418;2022-09-13T06:35:15;21.50;99.90
40756;DHT22;26461;45.630;9.418;2022-09-13T06:38:25;21.50;99.90
40756;DHT22;26461;45.630;9.418;2022-09-13T06:41:35;21.60;99.90
40756;DHT22;26461;45.630;9.418;2022-09-13T06:44:46;21.60;99.90
40756;DHT22;26461;45.630;9.418;2022-09-13T06:47:56;21.60;99.90
40756;DHT22;26461;45.630;9.418;2022-09-13T06:51:09;21.60;99.90
40756;DHT22;26461;45.630;9.418;2022-09-13T06:54:19;21.70;99.90
40756;DHT22;26461;45.630;9.418;2022-09-13T06:57:24;21.80;99.90
40756;DHT22;26461;45.630;9.418;2022-09-13T07:00:34;21.80;99.90
40756;DHT22;26461;45.630;9.418;2022-09-13T07:03:41;21.80;99.60
40756;DHT22;26461;45.630;9.418;2022-09-13T07:06:47;21.80;99.80
40756;DHT22;26461;45.630;9.418;2022-09-13T07:09:58;21.90;99.90
40756;DHT22;26461;45.630;9.418;2022-09-13T07:13:09;21.90;99.90
40756;DHT22;26461;45.630;9.418;2022-09-13T07:16:21;22.00;99.90
40756;DHT22;26461;45.630;9.418;2022-09-13T07:19:31;22.00;99.90
40756;DHT22;26461;45.630;9.418;2022-09-13T07:22:41;22.10;99.90
40756;DHT22;26461;45.630;9.418;2022-09-13T07:25:57;22.10;99.90
40756;DHT22;26461;45.630;9.418;2022-09-13T07:29:13;22.10;99.90
40756;DHT22;26461;45.630;9.418;2022-09-13T07:32:24;22.10;99.90
40756;DHT22;26461;45.630;9.418;2022-09-13T07:35:34;22.20;99.90
40756;DHT22;26461;45.630;9.418;2022-09-13T07:38:44;22.20;99.90
40756;DHT22;26461;45.630;9.418;2022-09-13T07:41:54;22.30;99.90
40756;DHT22;26461;45.630;9.418;2022-09-13T07:45:04;22.30;99.90
40756;DHT22;26461;45.630;9.418;2022-09-13T07:48:14;22.30;99.90
40756;DHT22;26461;45.630;9.418;2022-09-13T07:51:27;22.30;99.90
40756;DHT22;26461;45.630;9.418;2022-09-13T07:54:37;22.40;99.90
40756;DHT22;26461;45.630;9.418;2022-09-13T07:57:42;22.40;99.90
40756;DHT22;26461;45.630;9.418;2022-09-13T08:00:52;22.40;99.90
40756;DHT22;26461;45.630;9.418;2022-09-13T08:04:05;22.40;99.90
40756;DHT22;26461;45.630;9.418;2022-09-13T08:07:15;22.40;99.90
40756;DHT22;26461;45.630;9.418;2022-09-13T08:10:20;22.40;99.90
40756;DHT22;26461;45.630;9.418;2022-09-13T08:13:24;22.40;99.90
40756;DHT22;26461;45.630;9.418;2022-09-13T08:16:34;22.50;99.90
40756;DHT22;26461;45.630;9.418;2022-09-13T08:19:44;22.50;99.90
40756;DHT22;26461;45.630;9.418;2022-09-13T08:22:49;22.50;99.90
40756;DHT22;26461;45.630;9.418;2022-09-13T08:26:02;22.60;99.90
40756;DHT22;26461;45.630;9.418;2022-09-13T08:29:13;22.60;99.90
40756;DHT22;26461;45.630;9.418;2022-09-13T08:32:23;22.60;99.90
40756;DHT22;26461;45.630;9.418;2022-09-13T08:35:34;22.60;99.90
40756;DHT22;26461;45.630;9.418;2022-09-13T08:38:49;22.70;99.90
40756;DHT22;26461;45.630;9.418;2022-09-13T08:42:13;22.70;99.90
40756;DHT22;26461;45.630;9.418;2022-09-13T08:45:25;22.80;99.90
40756;DHT22;26461;45.630;9.418;2022-09-13T08:48:37;22.80;99.90
40756;DHT22;26461;45.630;9.418;2022-09-13T08:51:55;23.00;99.80
40756;DHT22;26461;45.630;9.418;2022-09-13T08:59:20;22.90;99.90
40756;DHT22;26461;45.630;9.418;2022-09-13T09:05:48;23.00;99.40
40756;DHT22;26461;45.630;9.418;2022-09-13T09:09:28;23.00;99.50
40756;DHT22;26461;45.630;9.418;2022-09-13T09:12:56;23.10;99.20
40756;DHT22;26461;45.630;9.418;2022-09-13T09:16:25;23.10;99.90
40756;DHT22;26461;45.630;9.418;2022-09-13T09:19:40;23.20;99.30
40756;DHT22;26461;45.630;9.418;2022-09-13T09:22:53;23.20;99.30
40756;DHT22;26461;45.630;9.418;2022-09-13T09:26:24;23.30;99.40
40756;DHT22;26461;45.630;9.418;2022-09-13T09:29:40;23.30;99.10
40756;DHT22;26461;45.630;9.418;2022-09-13T09:40:04;23.50;98.40
40756;DHT22;26461;45.630;9.418;2022-09-13T09:47:21;23.60;98.40
40756;DHT22;26461;45.630;9.418;2022-09-13T09:50:44;23.60;98.10
40756;DHT22;26461;45.630;9.418;2022-09-13T09:54:00;23.70;97.90
40756;DHT22;26461;45.630;9.418;2022-09-13T09:57:12;23.70;98.00
40756;DHT22;26461;45.630;9.418;2022-09-13T10:00:25;23.70;98.40
40756;DHT22;26461;45.630;9.418;2022-09-13T10:03:35;23.80;98.20
40756;DHT22;26461;45.630;9.418;2022-09-13T10:06:45;23.80;98.10
40756;DHT22;26461;45.630;9.418;2022-09-13T10:10:06;23.90;97.40
40756;DHT22;26461;45.630;9.418;2022-09-13T10:13:20;23.90;96.00
40756;DHT22;26461;45.630;9.418;2022-09-13T10:16:30;23.90;96.40
40756;DHT22;26461;45.630;9.418;2022-09-13T10:19:42;24.00;96.90
40756;DHT22;26461;45.630;9.418;2022-09-13T10:23:19;24.00;97.00
40756;DHT22;26461;45.630;9.418;2022-09-13T10:26:31;24.10;96.90
40756;DHT22;26461;45.630;9.418;2022-09-13T10:29:46;24.10;96.50
40756;DHT22;26461;45.630;9.418;2022-09-13T10:32:57;24.10;96.50
40756;DHT22;26461;45.630;9.418;2022-09-13T10:36:23;24.20;96.60
40756;DHT22;26461;45.630;9.418;2022-09-13T10:39:35;24.20;96.30
40756;DHT22;26461;45.630;9.418;2022-09-13T10:43:00;24.20;95.40
40756;DHT22;26461;45.630;9.418;2022-09-13T10:46:13;24.30;95.60
40756;DHT22;26461;45.630;9.418;2022-09-13T10:49:47;24.30;95.20
40756;DHT22;26461;45.630;9.418;2022-09-13T10:52:59;24.30;95.60
40756;DHT22;26461;45.630;9.418;2022-09-13T10:56:21;24.40;94.90
40756;DHT22;26461;45.630;9.418;2022-09-13T10:59:31;24.40;94.70
40756;DHT22;26461;45.630;9.418;2022-09-13T11:10:14;24.70;94.80
40756;DHT22;26461;45.630;9.418;2022-09-13T11:20:40;24.70;95.70
40756;DHT22;26461;45.630;9.418;2022-09-13T11:27:38;24.80;95.20
40756;DHT22;26461;45.630;9.418;2022-09-13T11:31:03;24.80;94.80
40756;DHT22;26461;45.630;9.418;2022-09-13T11:34:21;25.60;95.80
40756;DHT22;26461;45.630;9.418;2022-09-13T11:37:34;24.80;93.40
40756;DHT22;26461;45.630;9.418;2022-09-13T11:54:58;25.20;93.00
40756;DHT22;26461;45.630;9.418;2022-09-13T11:58:11;25.20;93.60
40756;DHT22;26461;45.630;9.418;2022-09-13T12:01:21;25.30;93.10
40756;DHT22;26461;45.630;9.418;2022-09-13T12:04:44;25.40;93.50
40756;DHT22;26461;45.630;9.418;2022-09-13T12:07:59;25.50;93.60
40756;DHT22;26461;45.630;9.418;2022-09-13T12:11:15;25.50;93.50
40756;DHT22;26461;45.630;9.418;2022-09-13T12:14:25;25.60;92.70
40756;DHT22;26461;45.630;9.418;2022-09-13T12:17:41;25.60;92.50
40756;DHT22;26461;45.630;9.418;2022-09-13T12:20:55;25.70;92.30
40756;DHT22;26461;45.630;9.418;2022-09-13T12:24:16;25.70;92.40
40756;DHT22;26461;45.630;9.418;2022-09-13T12:31:17;25.80;92.70
40756;DHT22;26461;45.630;9.418;2022-09-13T12:34:58;25.90;91.60
40756;DHT22;26461;45.630;9.418;2022-09-13T12:44:57;26.10;91.90
40756;DHT22;26461;45.630;9.418;2022-09-13T12:52:05;26.30;91.00
40756;DHT22;26461;45.630;9.418;2022-09-13T12:55:29;26.40;91.10
40756;DHT22;26461;45.630;9.418;2022-09-13T12:59:17;26.50;91.80
40756;DHT22;26461;45.630;9.418;2022-09-13T13:02:36;26.60;90.40
40756;DHT22;26461;45.630;9.418;2022-09-13T13:06:05;26.60;90.50
40756;DHT22;26461;45.630;9.418;2022-09-13T13:09:44;26.60;90.60
40756;DHT22;26461;45.630;9.418;2022-09-13T13:12:55;26.60;90.10
40756;DHT22;26461;45.630;9.418;2022-09-13T13:19:37;26.60;90.30
40756;DHT22;26461;45.630;9.418;2022-09-13T13:22:49;26.60;89.90
40756;DHT22;26461;45.630;9.418;2022-09-13T13:29:25;26.70;88.80
40756;DHT22;26461;45.630;9.418;2022-09-13T13:32:35;26.60;88.90
40756;DHT22;26461;45.630;9.418;2022-09-13T13:35:45;26.60;89.00
40756;DHT22;26461;45.630;9.418;2022-09-13T13:38:56;26.60;89.00
40756;DHT22;26461;45.630;9.418;2022-09-13T13:45:30;26.70;88.80
40756;DHT22;26461;45.630;9.418;2022-09-13T13:48:41;26.80;88.70
40756;DHT22;26461;45.630;9.418;2022-09-13T13:55:30;27.10;89.00
40756;DHT22;26461;45.630;9.418;2022-09-13T13:58:52;27.30;87.90
40756;DHT22;26461;45.630;9.418;2022-09-13T14:02:04;27.40;87.40
40756;DHT22;26461;45.630;9.418;2022-09-13T14:05:21;27.40;86.30
40756;DHT22;26461;45.630;9.418;2022-09-13T14:08:55;27.50;85.40
40756;DHT22;26461;45.630;9.418;2022-09-13T14:12:15;27.50;85.10
40756;DHT22;26461;45.630;9.418;2022-09-13T14:15:49;27.40;85.30
40756;DHT22;26461;45.630;9.418;2022-09-13T14:22:19;27.40;85.60
40756;DHT22;26461;45.630;9.418;2022-09-13T14:25:25;27.40;85.00
40756;DHT22;26461;45.630;9.418;2022-09-13T14:28:35;27.40;85.30
40756;DHT22;26461;45.630;9.418;2022-09-13T14:31:51;27.40;84.80
40756;DHT22;26461;45.630;9.418;2022-09-13T14:35:06;27.40;84.60
40756;DHT22;26461;45.630;9.418;2022-09-13T14:38:22;27.50;85.30
40756;DHT22;26461;45.630;9.418;2022-09-13T14:41:35;27.40;85.30
40756;DHT22;26461;45.630;9.418;2022-09-13T14:44:47;27.40;85.10
40756;DHT22;26461;45.630;9.418;2022-09-13T14:48:05;27.40;85.30
40756;DHT22;26461;45.630;9.418;2022-09-13T14:51:29;27.40;85.30
40756;DHT22;26461;45.630;9.418;2022-09-13T14:54:43;27.30;85.40
40756;DHT22;26461;45.630;9.418;2022-09-13T14:58:00;27.30;85.90
40756;DHT22;26461;45.630;9.418;2022-09-13T15:01:17;27.20;85.70
40756;DHT22;26461;45.630;9.418;2022-09-13T15:04:29;27.30;85.90
40756;DHT22;26461;45.630;9.418;2022-09-13T15:07:36;27.40;85.60
40756;DHT22;26461;45.630;9.418;2022-09-13T15:10:47;27.40;85.80
40756;DHT22;26461;45.630;9.418;2022-09-13T15:17:53;27.60;87.30
40756;DHT22;26461;45.630;9.418;2022-09-13T15:21:04;27.70;85.60
40756;DHT22;26461;45.630;9.418;2022-09-13T15:24:34;27.80;84.40
40756;DHT22;26461;45.630;9.418;2022-09-13T15:27:45;27.80;84.10
40756;DHT22;26461;45.630;9.418;2022-09-13T15:30:58;27.70;83.10
40756;DHT22;26461;45.630;9.418;2022-09-13T15:34:22;27.70;82.70
40756;DHT22;26461;45.630;9.418;2022-09-13T15:37:36;27.60;81.40
40756;DHT22;26461;45.630;9.418;2022-09-13T15:41:40;27.50;81.80
40756;DHT22;26461;45.630;9.418;2022-09-13T15:44:30;27.40;82.50
40756;DHT22;26461;45.630;9.418;2022-09-13T15:47:44;27.40;82.70
40756;DHT22;26461;45.630;9.418;2022-09-13T15:54:16;27.10;83.20
40756;DHT22;26461;45.630;9.418;2022-09-13T15:57:28;27.10;83.60
40756;DHT22;26461;45.630;9.418;2022-09-13T16:00:40;27.00;84.00
40756;DHT22;26461;45.630;9.418;2022-09-13T16:03:51;26.90;84.30
40756;DHT22;26461;45.630;9.418;2022-09-13T16:07:01;26.90;84.50
40756;DHT22;26461;45.630;9.418;2022-09-13T16:10:18;26.90;85.50
40756;DHT22;26461;45.630;9.418;2022-09-13T16:13:28;26.80;84.50
40756;DHT22;26461;45.630;9.418;2022-09-13T16:16:39;26.80;84.80
40756;DHT22;26461;45.630;9.418;2022-09-13T16:20:15;26.80;85.00
40756;DHT22;26461;45.630;9.418;2022-09-13T16:23:25;26.80;85.10
40756;DHT22;26461;45.630;9.418;2022-09-13T16:26:37;26.80;85.30
40756;DHT22;26461;45.630;9.418;2022-09-13T16:29:47;26.90;86.20
40756;DHT22;26461;45.630;9.418;2022-09-13T16:34:44;27.00;78.80
40756;DHT22;26461;45.630;9.418;2022-09-13T16:37:55;27.00;79.20
40756;DHT22;26461;45.630;9.418;2022-09-13T16:41:03;27.10;78.70
40756;DHT22;26461;45.630;9.418;2022-09-13T16:44:08;27.20;79.00
40756;DHT22;26461;45.630;9.418;2022-09-13T16:47:19;27.30;78.00
40756;DHT22;26461;45.630;9.418;2022-09-13T16:50:28;27.40;78.60
40756;DHT22;26461;45.630;9.418;2022-09-13T16:53:40;27.40;77.50
40756;DHT22;26461;45.630;9.418;2022-09-13T16:56:50;27.40;77.50
40756;DHT22;26461;45.630;9.418;2022-09-13T17:00:01;27.40;77.70
40756;DHT22;26461;45.630;9.418;2022-09-13T17:03:14;27.40;77.90
40756;DHT22;26461;45.630;9.418;2022-09-13T17:06:19;27.30;78.10
40756;DHT22;26461;45.630;9.418;2022-09-13T17:09:31;27.20;78.70
40756;DHT22;26461;45.630;9.418;2022-09-13T17:12:41;27.20;79.60
40756;DHT22;26461;45.630;9.418;2022-09-13T17:15:52;27.10;79.80
40756;DHT22;26461;45.630;9.418;2022-09-13T17:19:07;27.10;79.70
40756;DHT22;26461;45.630;9.418;2022-09-13T17:22:17;27.10;80.50
40756;DHT22;26461;45.630;9.418;2022-09-13T17:25:28;27.00;79.80
40756;DHT22;26461;45.630;9.418;2022-09-13T17:28:38;26.90;79.90
40756;DHT22;26461;45.630;9.418;2022-09-13T17:31:48;26.80;79.80
40756;DHT22;26461;45.630;9.418;2022-09-13T17:34:53;26.80;80.00
40756;DHT22;26461;45.630;9.418;2022-09-13T17:38:03;26.70;80.10
40756;DHT22;26461;45.630;9.418;2022-09-13T17:41:18;26.70;81.00
40756;DHT22;26461;45.630;9.418;2022-09-13T17:44:28;26.60;80.20
40756;DHT22;26461;45.630;9.418;2022-09-13T17:47:38;26.60;80.40
40756;DHT22;26461;45.630;9.418;2022-09-13T17:50:48;26.60;80.60
40756;DHT22;26461;45.630;9.418;2022-09-13T17:54:03;26.50;80.70
40756;DHT22;26461;45.630;9.418;2022-09-13T17:57:14;26.50;81.10
40756;DHT22;26461;45.630;9.418;2022-09-13T18:00:24;26.40;81.20
40756;DHT22;26461;45.630;9.418;2022-09-13T18:03:37;26.40;81.20
40756;DHT22;26461;45.630;9.418;2022-09-13T18:06:49;26.40;81.40
40756;DHT22;26461;45.630;9.418;2022-09-13T18:09:55;26.40;81.40
40756;DHT22;26461;45.630;9.418;2022-09-13T18:13:05;26.40;81.90
40756;DHT22;26461;45.630;9.418;2022-09-13T18:16:17;26.40;81.80
40756;DHT22;26461;45.630;9.418;2022-09-13T18:19:27;26.40;81.90
40756;DHT22;26461;45.630;9.418;2022-09-13T18:22:38;26.40;82.50
40756;DHT22;26461;45.630;9.418;2022-09-13T18:25:58;26.30;83.10
40756;DHT22;26461;45.630;9.418;2022-09-13T18:29:12;26.30;83.10
40756;DHT22;26461;45.630;9.418;2022-09-13T18:32:24;26.30;82.60
40756;DHT22;26461;45.630;9.418;2022-09-13T18:35:36;26.20;82.50
40756;DHT22;26461;45.630;9.418;2022-09-13T18:38:46;26.20;82.70
40756;DHT22;26461;45.630;9.418;2022-09-13T18:41:51;26.10;83.60
40756;DHT22;26461;45.630;9.418;2022-09-13T18:45:01;26.20;83.80
40756;DHT22;26461;45.630;9.418;2022-09-13T18:48:11;26.10;84.60
40756;DHT22;26461;45.630;9.418;2022-09-13T18:51:24;26.10;85.30
40756;DHT22;26461;45.630;9.418;2022-09-13T18:54:36;26.10;85.90
40756;DHT22;26461;45.630;9.418;2022-09-13T18:57:47;26.00;86.20
40756;DHT22;26461;45.630;9.418;2022-09-13T19:01:06;26.00;86.80
40756;DHT22;26461;45.630;9.418;2022-09-13T19:04:18;25.90;87.10
40756;DHT22;26461;45.630;9.418;2022-09-13T19:07:31;25.90;87.50
40756;DHT22;26461;45.630;9.418;2022-09-13T19:10:36;25.80;87.40
40756;DHT22;26461;45.630;9.418;2022-09-13T19:13:46;25.80;87.60
40756;DHT22;26461;45.630;9.418;2022-09-13T19:16:58;25.70;88.30
40756;DHT22;26461;45.630;9.418;2022-09-13T19:20:13;25.70;88.20
40756;DHT22;26461;45.630;9.418;2022-09-13T19:23:19;25.70;88.60
40756;DHT22;26461;45.630;9.418;2022-09-13T19:26:35;25.60;88.80
40756;DHT22;26461;45.630;9.418;2022-09-13T19:29:50;25.60;88.90
40756;DHT22;26461;45.630;9.418;2022-09-13T19:32:59;25.60;89.00
40756;DHT22;26461;45.630;9.418;2022-09-13T19:36:13;25.60;89.20
40756;DHT22;26461;45.630;9.418;2022-09-13T19:39:23;25.60;89.70
40756;DHT22;26461;45.630;9.418;2022-09-13T19:42:33;25.60;90.60
40756;DHT22;26461;45.630;9.418;2022-09-13T19:45:38;25.60;91.10
40756;DHT22;26461;45.630;9.418;2022-09-13T19:48:50;25.60;91.40
40756;DHT22;26461;45.630;9.418;2022-09-13T19:52:01;25.50;91.00
40756;DHT22;26461;45.630;9.418;2022-09-13T19:55:12;25.50;91.10
40756;DHT22;26461;45.630;9.418;2022-09-13T19:58:25;25.50;91.40
40756;DHT22;26461;45.630;9.418;2022-09-13T20:01:37;25.40;91.30
40756;DHT22;26461;45.630;9.418;2022-09-13T20:04:52;25.40;91.10
40756;DHT22;26461;45.630;9.418;2022-09-13T20:07:59;25.30;91.40
40756;DHT22;26461;45.630;9.418;2022-09-13T20:11:07;25.30;91.40
40756;DHT22;26461;45.630;9.418;2022-09-13T20:14:26;25.20;91.70
40756;DHT22;26461;45.630;9.418;2022-09-13T20:17:31;25.20;91.60
40756;DHT22;26461;45.630;9.418;2022-09-13T20:20:45;25.00;91.70
40756;DHT22;26461;45.630;9.418;2022-09-13T20:23:57;25.00;91.80
40756;DHT22;26461;45.630;9.418;2022-09-13T20:27:07;25.00;91.90
40756;DHT22;26461;45.630;9.418;2022-09-13T20:30:17;25.00;92.30
40756;DHT22;26461;45.630;9.418;2022-09-13T20:33:30;24.90;92.40
40756;DHT22;26461;45.630;9.418;2022-09-13T20:36:36;24.90;92.70
40756;DHT22;26461;45.630;9.418;2022-09-13T20:39:48;24.90;92.60
40756;DHT22;26461;45.630;9.418;2022-09-13T20:42:59;24.90;92.70
40756;DHT22;26461;45.630;9.418;2022-09-13T20:46:11;24.80;92.80
40756;DHT22;26461;45.630;9.418;2022-09-13T20:49:21;24.80;92.90
40756;DHT22;26461;45.630;9.418;2022-09-13T20:52:33;24.80;93.10
40756;DHT22;26461;45.630;9.418;2022-09-13T20:55:42;24.80;92.70
40756;DHT22;26461;45.630;9.418;2022-09-13T20:58:54;24.80;92.40
40756;DHT22;26461;45.630;9.418;2022-09-13T21:02:05;24.80;91.90
40756;DHT22;26461;45.630;9.418;2022-09-13T21:05:10;24.80;92.10
40756;DHT22;26461;45.630;9.418;2022-09-13T21:08:16;24.80;92.50
40756;DHT22;26461;45.630;9.418;2022-09-13T21:11:45;24.80;92.70
40756;DHT22;26461;45.630;9.418;2022-09-13T21:14:55;24.80;92.90
40756;DHT22;26461;45.630;9.418;2022-09-13T21:18:06;24.90;92.70
40756;DHT22;26461;45.630;9.418;2022-09-13T21:21:19;24.80;91.70
40756;DHT22;26461;45.630;9.418;2022-09-13T21:24:24;24.80;91.40
40756;DHT22;26461;45.630;9.418;2022-09-13T21:27:29;24.80;91.20
40756;DHT22;26461;45.630;9.418;2022-09-13T21:30:38;24.70;91.50
40756;DHT22;26461;45.630;9.418;2022-09-13T21:33:45;24.70;92.10
40756;DHT22;26461;45.630;9.418;2022-09-13T21:36:55;24.70;92.00
40756;DHT22;26461;45.630;9.418;2022-09-13T21:40:06;24.70;92.00
40756;DHT22;26461;45.630;9.418;2022-09-13T21:43:16;24.70;91.90
40756;DHT22;26461;45.630;9.418;2022-09-13T21:46:29;24.70;92.00
40756;DHT22;26461;45.630;9.418;2022-09-13T21:49:35;24.70;92.00
40756;DHT22;26461;45.630;9.418;2022-09-13T21:52:40;24.70;92.10
40756;DHT22;26461;45.630;9.418;2022-09-13T21:55:50;24.70;92.10
40756;DHT22;26461;45.630;9.418;2022-09-13T21:59:01;24.60;91.80
40756;DHT22;26461;45.630;9.418;2022-09-13T22:02:12;24.60;91.80
40756;DHT22;26461;45.630;9.418;2022-09-13T22:05:22;24.60;91.90
40756;DHT22;26461;45.630;9.418;2022-09-13T22:08:35;24.60;92.10
40756;DHT22;26461;45.630;9.418;2022-09-13T22:11:46;24.60;92.60
40756;DHT22;26461;45.630;9.418;2022-09-13T22:14:57;24.60;93.10
40756;DHT22;26461;45.630;9.418;2022-09-13T22:18:07;24.60;93.70
40756;DHT22;26461;45.630;9.418;2022-09-13T22:21:20;24.60;93.80
40756;DHT22;26461;45.630;9.418;2022-09-13T22:24:30;24.60;93.80
40756;DHT22;26461;45.630;9.418;2022-09-13T22:27:40;24.60;93.90
40756;DHT22;26461;45.630;9.418;2022-09-13T22:30:51;24.60;94.00
40756;DHT22;26461;45.630;9.418;2022-09-13T22:34:02;24.50;93.90
40756;DHT22;26461;45.630;9.418;2022-09-13T22:37:12;24.50;93.90
40756;DHT22;26461;45.630;9.418;2022-09-13T22:40:23;24.40;93.70
40756;DHT22;26461;45.630;9.418;2022-09-13T22:43:33;24.40;93.30
40756;DHT22;26461;45.630;9.418;2022-09-13T22:46:44;24.40;93.20